This is the latest recevied weather packets stored in our database for station/object VE7OTD. If no packets are shown the sender has not sent any weather packets the latest 10 day(s).
| Time | Temp. | Humidity | Pressure | Rain* | Wind** | Luminosity | Snow |
|---|---|---|---|---|---|---|---|
| 1788231910 | 17.78° C | 73% | 1008.9 hPa | 0 mm | - | - | - |
| 1788230095 | 19.44° C | 67% | 1009 hPa | 0 mm | - | - | - |
| 1788228280 | 20.56° C | 63% | 1009.1 hPa | 0 mm | - | - | - |
| 1788226481 | 20.56° C | 62% | 1009.5 hPa | 0 mm | - | - | - |
| 1788224676 | 21.11° C | 62% | 1009.7 hPa | 0 mm | - | - | - |
| 1788222866 | 21.67° C | 59% | 1010.2 hPa | 0 mm | - | - | - |
| 1788221064 | 20.56° C | 60% | 1010.5 hPa | 0 mm | - | - | - |
| 1788219249 | 21.11° C | 59% | 1010.8 hPa | 0 mm | - | - | - |
| 1788217434 | 21.11° C | 60% | 1011 hPa | 0 mm | - | - | - |
| 1788215619 | 21.67° C | 59% | 1011.5 hPa | 0 mm | - | - | - |
| 1788213804 | 21.67° C | 61% | 1011.6 hPa | 0 mm | - | - | - |
| 1788211989 | 21.11° C | 62% | 1011.9 hPa | 0 mm | - | - | - |
| 1788210174 | 21.11° C | 64% | 1012.2 hPa | 0 mm | - | - | - |
| 1788208360 | 20.56° C | 68% | 1012.5 hPa | 0 mm | - | - | - |
| 1788206544 | 20° C | 70% | 1012.7 hPa | 0 mm | - | - | - |
| 1788204730 | 19.44° C | 74% | 1013.2 hPa | 0 mm | - | - | - |
| 1788202914 | 21.11° C | 71% | 1013.2 hPa | 0 mm | - | - | - |
| 1788202767 | 18.89° C | 79% | 1013.7 hPa | 0 mm | - | - | - |
| 1788202585 | 18.33° C | 81% | 1013.9 hPa | 0 mm | - | - | - |
| 1788026665 | 17.78° C | 65% | 1015.6 hPa | 0 mm | - | - | - |
| 1788024850 | 18.33° C | 63% | 1015.6 hPa | 0 mm | - | - | - |
| 1788023861 | 17.22° C | 66% | 1015.6 hPa | 0 mm | - | - | - |
| 1788023711 | 16.67° C | 68% | 1015.7 hPa | 0 mm | - | - | - |
| 1788023550 | 16.11° C | 68% | 1015.7 hPa | 0 mm | - | - | - |
| 1788006719 | 9.44° C | 98% | 1015.3 hPa | 0 mm | - | - | - |
* Rain latest hour (hover to see other rain measurements)
** Current wind speed in m/s (hover to see current wind gust speed)